sensor_id;sensor_type;location;lat;lon;timestamp;pressure;altitude;pressure_sealevel;temperature;humidity
19860;BME280;2395;50.738;7.122;2022-09-21T00:00:31;102075.53;;;10.32;99.33
19860;BME280;2395;50.738;7.122;2022-09-21T00:02:58;102068.81;;;10.21;99.40
19860;BME280;2395;50.738;7.122;2022-09-21T00:05:25;102069.59;;;10.24;99.26
19860;BME280;2395;50.738;7.122;2022-09-21T00:07:52;102070.38;;;10.32;99.56
19860;BME280;2395;50.738;7.122;2022-09-21T00:10:20;102071.44;;;10.18;98.97
19860;BME280;2395;50.738;7.122;2022-09-21T00:12:48;102070.53;;;10.19;99.56
19860;BME280;2395;50.738;7.122;2022-09-21T00:15:16;102072.25;;;10.22;99.74
19860;BME280;2395;50.738;7.122;2022-09-21T00:17:45;102068.81;;;10.23;99.31
19860;BME280;2395;50.738;7.122;2022-09-21T00:20:13;102064.47;;;10.24;98.86
19860;BME280;2395;50.738;7.122;2022-09-21T00:22:40;102072.31;;;10.14;99.34
19860;BME280;2395;50.738;7.122;2022-09-21T00:25:09;102080.91;;;10.10;99.72
19860;BME280;2395;50.738;7.122;2022-09-21T00:27:35;102074.06;;;10.11;99.35
19860;BME280;2395;50.738;7.122;2022-09-21T00:30:04;102076.69;;;10.06;99.37
19860;BME280;2395;50.738;7.122;2022-09-21T00:32:36;102068.97;;;10.08;99.78
19860;BME280;2395;50.738;7.122;2022-09-21T00:35:05;102080.00;;;10.14;99.26
19860;BME280;2395;50.738;7.122;2022-09-21T00:37:34;102077.53;;;10.07;99.39
19860;BME280;2395;50.738;7.122;2022-09-21T00:40:02;102082.72;;;10.02;98.98
19860;BME280;2395;50.738;7.122;2022-09-21T00:42:32;102071.63;;;10.02;99.10
19860;BME280;2395;50.738;7.122;2022-09-21T00:45:00;102079.34;;;9.94;99.31
19860;BME280;2395;50.738;7.122;2022-09-21T00:47:34;102084.53;;;9.90;98.95
19860;BME280;2395;50.738;7.122;2022-09-21T00:50:06;102087.09;;;9.90;99.56
19860;BME280;2395;50.738;7.122;2022-09-21T00:52:39;102079.50;;;9.84;99.65
19860;BME280;2395;50.738;7.122;2022-09-21T00:55:12;102082.16;;;9.73;99.56
19860;BME280;2395;50.738;7.122;2022-09-21T00:57:42;102079.59;;;9.73;99.27
19860;BME280;2395;50.738;7.122;2022-09-21T01:00:12;102077.84;;;9.77;99.63
19860;BME280;2395;50.738;7.122;2022-09-21T01:02:40;102078.78;;;9.67;99.85
19860;BME280;2395;50.738;7.122;2022-09-21T01:05:09;102078.78;;;9.70;100.00
19860;BME280;2395;50.738;7.122;2022-09-21T01:07:40;102085.56;;;9.74;100.00
19860;BME280;2395;50.738;7.122;2022-09-21T01:10:12;102089.91;;;9.66;99.84
19860;BME280;2395;50.738;7.122;2022-09-21T01:12:54;102087.44;;;9.58;99.96
19860;BME280;2395;50.738;7.122;2022-09-21T01:15:38;102089.16;;;9.56;100.00
19860;BME280;2395;50.738;7.122;2022-09-21T01:18:18;102093.31;;;9.68;100.00
19860;BME280;2395;50.738;7.122;2022-09-21T01:21:22;102088.25;;;9.60;100.00
19860;BME280;2395;50.738;7.122;2022-09-21T01:24:14;102088.25;;;9.60;99.78
19860;BME280;2395;50.738;7.122;2022-09-21T01:27:29;102088.28;;;9.57;100.00
19860;BME280;2395;50.738;7.122;2022-09-21T01:30:06;102084.88;;;9.57;100.00
19860;BME280;2395;50.738;7.122;2022-09-21T01:32:41;102095.19;;;9.51;100.00
19860;BME280;2395;50.738;7.122;2022-09-21T01:35:16;102101.09;;;9.56;100.00
19860;BME280;2395;50.738;7.122;2022-09-21T01:37:48;102092.75;;;9.34;100.00
19860;BME280;2395;50.738;7.122;2022-09-21T01:40:22;102097.84;;;9.39;100.00
19860;BME280;2395;50.738;7.122;2022-09-21T01:42:54;102104.59;;;9.49;100.00
19860;BME280;2395;50.738;7.122;2022-09-21T01:45:29;102097.00;;;9.37;100.00
19860;BME280;2395;50.738;7.122;2022-09-21T01:48:00;102094.44;;;9.37;100.00
19860;BME280;2395;50.738;7.122;2022-09-21T01:50:34;102102.13;;;9.40;100.00
19860;BME280;2395;50.738;7.122;2022-09-21T01:53:09;102103.06;;;9.27;100.00
19860;BME280;2395;50.738;7.122;2022-09-21T01:55:42;102103.91;;;9.32;100.00
19860;BME280;2395;50.738;7.122;2022-09-21T01:58:18;102109.81;;;9.37;100.00
19860;BME280;2395;50.738;7.122;2022-09-21T02:00:54;102109.84;;;9.32;100.00
19860;BME280;2395;50.738;7.122;2022-09-21T02:03:28;102101.28;;;9.38;100.00
19860;BME280;2395;50.738;7.122;2022-09-21T02:05:59;102106.38;;;9.41;100.00
19860;BME280;2395;50.738;7.122;2022-09-21T02:08:30;102115.06;;;9.24;100.00
19860;BME280;2395;50.738;7.122;2022-09-21T02:10:59;102109.94;;;9.21;100.00
19860;BME280;2395;50.738;7.122;2022-09-21T02:13:32;102109.13;;;9.17;100.00
19860;BME280;2395;50.738;7.122;2022-09-21T02:16:21;102113.34;;;9.26;100.00
19860;BME280;2395;50.738;7.122;2022-09-21T02:19:08;102110.75;;;9.27;100.00
19860;BME280;2395;50.738;7.122;2022-09-21T02:21:53;102105.63;;;9.27;100.00
19860;BME280;2395;50.738;7.122;2022-09-21T02:24:34;102109.84;;;9.35;100.00
19860;BME280;2395;50.738;7.122;2022-09-21T02:27:10;102098.84;;;9.22;100.00
19860;BME280;2395;50.738;7.122;2022-09-21T02:29:46;102109.00;;;9.32;100.00
19860;BME280;2395;50.738;7.122;2022-09-21T02:32:25;102107.28;;;9.32;100.00
19860;BME280;2395;50.738;7.122;2022-09-21T02:35:01;102093.53;;;9.45;100.00
19860;BME280;2395;50.738;7.122;2022-09-21T02:37:36;102092.66;;;9.49;100.00
19860;BME280;2395;50.738;7.122;2022-09-21T02:40:16;102094.44;;;9.37;100.00
19860;BME280;2395;50.738;7.122;2022-09-21T02:42:51;102092.75;;;9.34;100.00
19860;BME280;2395;50.738;7.122;2022-09-21T02:45:23;102097.00;;;9.37;100.00
19860;BME280;2395;50.738;7.122;2022-09-21T02:47:58;102087.63;;;9.37;100.00
19860;BME280;2395;50.738;7.122;2022-09-21T02:50:34;102093.56;;;9.41;100.00
19860;BME280;2395;50.738;7.122;2022-09-21T02:53:06;102093.47;;;9.50;100.00
19860;BME280;2395;50.738;7.122;2022-09-21T02:55:34;102091.69;;;9.61;100.00
19860;BME280;2395;50.738;7.122;2022-09-21T02:58:06;102085.59;;;9.69;100.00
19860;BME280;2395;50.738;7.122;2022-09-21T03:00:35;102086.47;;;9.68;100.00
19860;BME280;2395;50.738;7.122;2022-09-21T03:03:16;102083.13;;;9.62;100.00
19860;BME280;2395;50.738;7.122;2022-09-21T03:05:45;102084.72;;;9.73;100.00
19860;BME280;2395;50.738;7.122;2022-09-21T03:08:14;102087.47;;;9.52;100.00
19860;BME280;2395;50.738;7.122;2022-09-21T03:10:41;102086.72;;;9.43;100.00
19860;BME280;2395;50.738;7.122;2022-09-21T03:13:09;102091.09;;;9.32;100.00
19860;BME280;2395;50.738;7.122;2022-09-21T03:15:36;102090.09;;;9.46;100.00
19860;BME280;2395;50.738;7.122;2022-09-21T03:18:05;102090.72;;;9.69;100.00
19860;BME280;2395;50.738;7.122;2022-09-21T03:20:36;102089.09;;;9.64;100.00
19860;BME280;2395;50.738;7.122;2022-09-21T03:23:03;102095.91;;;9.66;100.00
19860;BME280;2395;50.738;7.122;2022-09-21T03:25:31;102096.69;;;9.73;100.00
19860;BME280;2395;50.738;7.122;2022-09-21T03:27:58;102098.34;;;9.78;100.00
19860;BME280;2395;50.738;7.122;2022-09-21T03:30:26;102095.03;;;9.66;100.00
19860;BME280;2395;50.738;7.122;2022-09-21T03:32:54;102098.72;;;9.39;100.00
19860;BME280;2395;50.738;7.122;2022-09-21T03:35:22;102095.28;;;9.42;100.00
19860;BME280;2395;50.738;7.122;2022-09-21T03:37:52;102099.41;;;9.55;100.00
19860;BME280;2395;50.738;7.122;2022-09-21T03:40:20;102093.41;;;9.56;100.00
19860;BME280;2395;50.738;7.122;2022-09-21T03:42:48;102100.34;;;9.49;100.00
19860;BME280;2395;50.738;7.122;2022-09-21T03:45:15;102100.97;;;9.71;100.00
19860;BME280;2395;50.738;7.122;2022-09-21T03:47:42;102101.81;;;9.71;100.00
19860;BME280;2395;50.738;7.122;2022-09-21T03:50:10;102100.16;;;9.66;100.00
19860;BME280;2395;50.738;7.122;2022-09-21T03:52:37;102108.00;;;9.51;100.00
19860;BME280;2395;50.738;7.122;2022-09-21T03:55:07;102094.44;;;9.40;100.00
19860;BME280;2395;50.738;7.122;2022-09-21T03:57:35;102105.59;;;9.33;100.00
19860;BME280;2395;50.738;7.122;2022-09-21T04:00:08;102098.59;;;9.53;100.00
19860;BME280;2395;50.738;7.122;2022-09-21T04:02:36;102095.94;;;9.62;100.00
19860;BME280;2395;50.738;7.122;2022-09-21T04:05:07;102094.38;;;9.47;100.00
19860;BME280;2395;50.738;7.122;2022-09-21T04:07:36;102097.72;;;9.55;100.00
19860;BME280;2395;50.738;7.122;2022-09-21T04:10:10;102099.31;;;9.65;100.00
19860;BME280;2395;50.738;7.122;2022-09-21T04:12:38;102100.41;;;9.39;100.00
19860;BME280;2395;50.738;7.122;2022-09-21T04:15:09;102105.41;;;9.52;100.00
19860;BME280;2395;50.738;7.122;2022-09-21T04:17:37;102106.22;;;9.59;100.00
19860;BME280;2395;50.738;7.122;2022-09-21T04:20:06;102106.16;;;9.63;100.00
19860;BME280;2395;50.738;7.122;2022-09-21T04:22:34;102107.84;;;9.66;100.00
19860;BME280;2395;50.738;7.122;2022-09-21T04:25:02;102107.06;;;9.61;100.00
19860;BME280;2395;50.738;7.122;2022-09-21T04:27:31;102109.56;;;9.68;100.00
19860;BME280;2395;50.738;7.122;2022-09-21T04:29:58;102107.06;;;9.61;100.00
19860;BME280;2395;50.738;7.122;2022-09-21T04:32:25;102112.16;;;9.64;100.00
19860;BME280;2395;50.738;7.122;2022-09-21T04:34:52;102112.91;;;9.73;100.00
19860;BME280;2395;50.738;7.122;2022-09-21T04:37:19;102113.72;;;9.77;100.00
19860;BME280;2395;50.738;7.122;2022-09-21T04:39:46;102106.91;;;9.74;100.00
19860;BME280;2395;50.738;7.122;2022-09-21T04:42:13;102112.97;;;9.67;100.00
19860;BME280;2395;50.738;7.122;2022-09-21T04:44:41;102114.66;;;9.70;100.00
19860;BME280;2395;50.738;7.122;2022-09-21T04:47:08;102112.03;;;9.74;100.00
19860;BME280;2395;50.738;7.122;2022-09-21T04:49:35;102117.19;;;9.73;100.00
19860;BME280;2395;50.738;7.122;2022-09-21T04:52:03;102121.41;;;9.77;100.00
19860;BME280;2395;50.738;7.122;2022-09-21T04:54:30;102116.16;;;9.89;100.00
19860;BME280;2395;50.738;7.122;2022-09-21T04:56:57;102121.44;;;9.75;100.00
19860;BME280;2395;50.738;7.122;2022-09-21T04:59:24;102124.91;;;9.67;100.00
19860;BME280;2395;50.738;7.122;2022-09-21T05:01:52;102132.47;;;9.83;100.00
19860;BME280;2395;50.738;7.122;2022-09-21T05:04:19;102127.22;;;9.94;100.00
19860;BME280;2395;50.738;7.122;2022-09-21T05:06:46;102131.59;;;9.84;99.80
19860;BME280;2395;50.738;7.122;2022-09-21T05:09:13;102127.31;;;9.83;100.00
19860;BME280;2395;50.738;7.122;2022-09-21T05:11:57;102135.91;;;9.81;100.00
19860;BME280;2395;50.738;7.122;2022-09-21T05:14:24;102133.38;;;9.76;100.00
19860;BME280;2395;50.738;7.122;2022-09-21T05:16:52;102141.41;;;9.36;100.00
19860;BME280;2395;50.738;7.122;2022-09-21T05:19:20;102142.47;;;9.11;100.00
19860;BME280;2395;50.738;7.122;2022-09-21T05:21:47;102142.34;;;9.26;100.00
19860;BME280;2395;50.738;7.122;2022-09-21T05:24:14;102143.13;;;9.38;100.00
19860;BME280;2395;50.738;7.122;2022-09-21T05:26:41;102148.31;;;9.25;100.00
19860;BME280;2395;50.738;7.122;2022-09-21T05:29:08;102148.41;;;9.18;100.00
19860;BME280;2395;50.738;7.122;2022-09-21T05:31:42;102155.28;;;9.07;100.00
19860;BME280;2395;50.738;7.122;2022-09-21T05:34:38;102157.88;;;9.05;100.00
19860;BME280;2395;50.738;7.122;2022-09-21T05:37:28;102163.03;;;8.98;100.00
19860;BME280;2395;50.738;7.122;2022-09-21T05:39:59;102159.59;;;8.97;100.00
19860;BME280;2395;50.738;7.122;2022-09-21T05:42:27;102158.53;;;9.31;100.00
19860;BME280;2395;50.738;7.122;2022-09-21T05:44:55;102159.38;;;9.34;100.00
19860;BME280;2395;50.738;7.122;2022-09-21T05:47:30;102161.38;;;8.88;100.00
19860;BME280;2395;50.738;7.122;2022-09-21T05:50:19;102163.81;;;9.10;100.00
19860;BME280;2395;50.738;7.122;2022-09-21T05:53:01;102164.59;;;9.20;100.00
19860;BME280;2395;50.738;7.122;2022-09-21T05:55:44;102164.44;;;9.39;100.00
19860;BME280;2395;50.738;7.122;2022-09-21T05:58:27;102168.66;;;9.46;100.00
19860;BME280;2395;50.738;7.122;2022-09-21T06:01:14;102178.03;;;9.47;100.00
19860;BME280;2395;50.738;7.122;2022-09-21T06:03:44;102175.31;;;9.68;100.00
19860;BME280;2395;50.738;7.122;2022-09-21T06:06:15;102170.19;;;9.68;100.00
19860;BME280;2395;50.738;7.122;2022-09-21T06:08:42;102177.00;;;9.70;99.96
19860;BME280;2395;50.738;7.122;2022-09-21T06:11:12;102178.63;;;9.82;98.74
19860;BME280;2395;50.738;7.122;2022-09-21T06:13:39;102186.28;;;9.86;97.87
19860;BME280;2395;50.738;7.122;2022-09-21T06:16:07;102192.34;;;9.75;97.18
19860;BME280;2395;50.738;7.122;2022-09-21T06:18:36;102200.78;;;9.89;97.43
19860;BME280;2395;50.738;7.122;2022-09-21T06:21:05;102192.25;;;9.88;96.83
19860;BME280;2395;50.738;7.122;2022-09-21T06:23:34;102202.56;;;9.81;97.08
19860;BME280;2395;50.738;7.122;2022-09-21T06:26:01;102192.69;;;9.30;96.80
19860;BME280;2395;50.738;7.122;2022-09-21T06:28:28;102190.69;;;9.68;97.12
19860;BME280;2395;50.738;7.122;2022-09-21T06:30:56;102195.22;;;9.32;97.53
19860;BME280;2395;50.738;7.122;2022-09-21T06:33:24;102198.63;;;9.39;98.13
19860;BME280;2395;50.738;7.122;2022-09-21T06:35:53;102198.41;;;9.65;98.05
19860;BME280;2395;50.738;7.122;2022-09-21T06:38:21;102195.22;;;9.37;97.44
19860;BME280;2395;50.738;7.122;2022-09-21T06:40:50;102200.22;;;9.51;98.39
19860;BME280;2395;50.738;7.122;2022-09-21T06:43:17;102198.41;;;9.66;97.34
19860;BME280;2395;50.738;7.122;2022-09-21T06:45:52;102202.47;;;9.90;97.15
19860;BME280;2395;50.738;7.122;2022-09-21T06:48:20;102202.72;;;9.63;96.89
19860;BME280;2395;50.738;7.122;2022-09-21T06:50:47;102199.06;;;9.85;97.04
19860;BME280;2395;50.738;7.122;2022-09-21T06:53:15;102195.34;;;10.22;96.37
19860;BME280;2395;50.738;7.122;2022-09-21T06:55:42;102202.34;;;10.05;95.29
19860;BME280;2395;50.738;7.122;2022-09-21T06:58:11;102204.81;;;10.15;95.88
19860;BME280;2395;50.738;7.122;2022-09-21T07:00:38;102199.56;;;10.27;94.94
19860;BME280;2395;50.738;7.122;2022-09-21T07:03:05;102196.75;;;10.49;94.39
19860;BME280;2395;50.738;7.122;2022-09-21T07:05:32;102192.28;;;10.63;94.13
19860;BME280;2395;50.738;7.122;2022-09-21T07:07:59;102198.47;;;10.50;94.13
19860;BME280;2395;50.738;7.122;2022-09-21T07:10:27;102198.09;;;10.80;92.45
19860;BME280;2395;50.738;7.122;2022-09-21T07:12:54;102213.22;;;10.30;92.35
19860;BME280;2395;50.738;7.122;2022-09-21T07:15:22;102200.31;;;10.36;94.01
19860;BME280;2395;50.738;7.122;2022-09-21T07:17:53;102205.00;;;10.74;94.05
19860;BME280;2395;50.738;7.122;2022-09-21T07:20:20;102199.44;;;11.05;92.51
19860;BME280;2395;50.738;7.122;2022-09-21T07:22:47;102196.88;;;11.05;91.21
19860;BME280;2395;50.738;7.122;2022-09-21T07:25:15;102199.53;;;10.99;90.29
19860;BME280;2395;50.738;7.122;2022-09-21T07:27:42;102209.47;;;11.23;89.61
19860;BME280;2395;50.738;7.122;2022-09-21T07:30:10;102205.63;;;10.91;91.26
19860;BME280;2395;50.738;7.122;2022-09-21T07:32:38;102205.53;;;11.01;90.02
19860;BME280;2395;50.738;7.122;2022-09-21T07:35:06;102206.13;;;11.18;89.62
19860;BME280;2395;50.738;7.122;2022-09-21T07:37:33;102206.59;;;11.44;90.07
19860;BME280;2395;50.738;7.122;2022-09-21T07:40:01;102204.00;;;11.45;87.72
19860;BME280;2395;50.738;7.122;2022-09-21T07:42:30;102211.94;;;10.67;89.12
19860;BME280;2395;50.738;7.122;2022-09-21T07:44:57;102208.81;;;10.43;92.82
19860;BME280;2395;50.738;7.122;2022-09-21T07:47:25;102215.00;;;10.96;91.38
19860;BME280;2395;50.738;7.122;2022-09-21T07:49:54;102212.25;;;11.06;90.83
19860;BME280;2395;50.738;7.122;2022-09-21T07:52:21;102209.66;;;11.11;89.36
19860;BME280;2395;50.738;7.122;2022-09-21T07:54:48;102210.16;;;11.34;89.49
19860;BME280;2395;50.738;7.122;2022-09-21T07:57:15;102206.69;;;11.36;89.42
19860;BME280;2395;50.738;7.122;2022-09-21T07:59:59;102205.34;;;11.70;88.88
19860;BME280;2395;50.738;7.122;2022-09-21T08:02:26;102211.59;;;12.05;85.82
19860;BME280;2395;50.738;7.122;2022-09-21T08:04:54;102202.13;;;12.51;84.11
19860;BME280;2395;50.738;7.122;2022-09-21T08:07:21;102214.34;;;12.42;83.57
19860;BME280;2395;50.738;7.122;2022-09-21T08:09:48;102210.44;;;12.21;82.56
19860;BME280;2395;50.738;7.122;2022-09-21T08:12:16;102213.28;;;11.57;86.18
19860;BME280;2395;50.738;7.122;2022-09-21T08:14:45;102208.44;;;11.90;87.98
19860;BME280;2395;50.738;7.122;2022-09-21T08:17:13;102208.69;;;11.75;88.78
19860;BME280;2395;50.738;7.122;2022-09-21T08:19:40;102212.56;;;12.45;86.54
19860;BME280;2395;50.738;7.122;2022-09-21T08:22:08;102210.22;;;12.33;85.33
19860;BME280;2395;50.738;7.122;2022-09-21T08:24:36;102206.81;;;12.74;82.91
19860;BME280;2395;50.738;7.122;2022-09-21T08:27:04;102211.56;;;12.96;82.17
19860;BME280;2395;50.738;7.122;2022-09-21T08:29:33;102204.81;;;12.47;83.04
19860;BME280;2395;50.738;7.122;2022-09-21T08:32:01;102215.97;;;12.47;84.28
19860;BME280;2395;50.738;7.122;2022-09-21T08:34:28;102208.06;;;12.55;84.05
19860;BME280;2395;50.738;7.122;2022-09-21T08:36:55;102212.69;;;12.38;82.71
19860;BME280;2395;50.738;7.122;2022-09-21T08:39:24;102210.47;;;12.64;83.08
19860;BME280;2395;50.738;7.122;2022-09-21T08:42:13;102216.19;;;11.89;85.37
19860;BME280;2395;50.738;7.122;2022-09-21T08:44:55;102207.47;;;11.95;86.99
19860;BME280;2395;50.738;7.122;2022-09-21T08:47:35;102211.91;;;11.88;85.73
19860;BME280;2395;50.738;7.122;2022-09-21T08:50:21;102208.28;;;11.45;87.94
19860;BME280;2395;50.738;7.122;2022-09-21T08:52:51;102205.19;;;11.79;88.75
19860;BME280;2395;50.738;7.122;2022-09-21T08:55:21;102204.84;;;12.00;87.96
19860;BME280;2395;50.738;7.122;2022-09-21T08:57:49;102207.66;;;11.85;87.28
19860;BME280;2395;50.738;7.122;2022-09-21T09:00:18;102208.56;;;11.83;88.28
19860;BME280;2395;50.738;7.122;2022-09-21T09:03:12;102201.66;;;12.31;87.07
19860;BME280;2395;50.738;7.122;2022-09-21T09:05:49;102201.44;;;12.43;86.30
19860;BME280;2395;50.738;7.122;2022-09-21T09:08:38;102202.38;;;12.81;85.65
19860;BME280;2395;50.738;7.122;2022-09-21T09:11:29;102200.03;;;13.12;83.41
19860;BME280;2395;50.738;7.122;2022-09-21T09:14:31;102198.38;;;13.08;82.00
19860;BME280;2395;50.738;7.122;2022-09-21T09:17:22;102192.72;;;13.30;82.21
19860;BME280;2395;50.738;7.122;2022-09-21T09:19:59;102201.03;;;13.43;80.02
19860;BME280;2395;50.738;7.122;2022-09-21T09:22:33;102204.44;;;13.43;79.54
19860;BME280;2395;50.738;7.122;2022-09-21T09:25:06;102193.59;;;13.66;79.27
19860;BME280;2395;50.738;7.122;2022-09-21T09:27:45;102199.66;;;13.98;79.59
19860;BME280;2395;50.738;7.122;2022-09-21T09:30:18;102193.53;;;14.00;77.19
19860;BME280;2395;50.738;7.122;2022-09-21T09:32:54;102190.59;;;14.15;75.67
19860;BME280;2395;50.738;7.122;2022-09-21T09:35:27;102188.91;;;14.14;74.98
19860;BME280;2395;50.738;7.122;2022-09-21T09:38:02;102190.91;;;14.35;75.12
19860;BME280;2395;50.738;7.122;2022-09-21T09:40:50;102190.94;;;14.64;73.21
19860;BME280;2395;50.738;7.122;2022-09-21T09:43:41;102182.84;;;14.76;72.65
19860;BME280;2395;50.738;7.122;2022-09-21T09:46:22;102183.84;;;14.70;71.81
19860;BME280;2395;50.738;7.122;2022-09-21T09:49:18;102182.41;;;14.91;71.21
19860;BME280;2395;50.738;7.122;2022-09-21T09:51:51;102183.59;;;14.79;71.43
19860;BME280;2395;50.738;7.122;2022-09-21T09:54:20;102181.91;;;15.07;70.56
19860;BME280;2395;50.738;7.122;2022-09-21T09:56:50;102184.09;;;14.92;70.53
19860;BME280;2395;50.738;7.122;2022-09-21T09:59:28;102178.38;;;15.10;69.75
19860;BME280;2395;50.738;7.122;2022-09-21T10:02:00;102175.38;;;15.50;68.32
19860;BME280;2395;50.738;7.122;2022-09-21T10:04:28;102171.59;;;15.06;68.96
19860;BME280;2395;50.738;7.122;2022-09-21T10:06:55;102168.53;;;15.74;68.16
19860;BME280;2395;50.738;7.122;2022-09-21T10:09:25;102165.69;;;16.06;65.83
19860;BME280;2395;50.738;7.122;2022-09-21T10:11:57;102167.97;;;16.85;62.96
19860;BME280;2395;50.738;7.122;2022-09-21T10:14:32;102166.28;;;16.14;62.95
19860;BME280;2395;50.738;7.122;2022-09-21T10:17:06;102161.34;;;16.06;63.01
19860;BME280;2395;50.738;7.122;2022-09-21T10:19:33;102159.88;;;16.48;61.33
19860;BME280;2395;50.738;7.122;2022-09-21T10:22:04;102155.31;;;16.54;61.50
19860;BME280;2395;50.738;7.122;2022-09-21T10:24:36;102159.59;;;16.32;62.43
19860;BME280;2395;50.738;7.122;2022-09-21T10:27:10;102155.25;;;17.21;60.18
19860;BME280;2395;50.738;7.122;2022-09-21T10:29:43;102143.34;;;17.39;60.54
19860;BME280;2395;50.738;7.122;2022-09-21T10:32:23;102146.69;;;18.22;58.29
19860;BME280;2395;50.738;7.122;2022-09-21T10:35:14;102146.66;;;18.97;55.86
19860;BME280;2395;50.738;7.122;2022-09-21T10:37:44;102142.22;;;18.99;52.62
19860;BME280;2395;50.738;7.122;2022-09-21T10:40:27;102139.28;;;19.76;51.62
19860;BME280;2395;50.738;7.122;2022-09-21T10:42:57;102137.13;;;19.83;48.34
19860;BME280;2395;50.738;7.122;2022-09-21T10:45:28;102132.03;;;18.58;53.31
19860;BME280;2395;50.738;7.122;2022-09-21T10:47:58;102138.00;;;20.01;47.85
19860;BME280;2395;50.738;7.122;2022-09-21T10:50:36;102133.88;;;18.92;48.17
19860;BME280;2395;50.738;7.122;2022-09-21T10:53:20;102130.44;;;19.95;48.27
19860;BME280;2395;50.738;7.122;2022-09-21T10:55:56;102134.38;;;19.36;50.12
19860;BME280;2395;50.738;7.122;2022-09-21T10:58:25;102128.25;;;18.65;51.91
19860;BME280;2395;50.738;7.122;2022-09-21T11:00:56;102122.25;;;19.69;50.82
19860;BME280;2395;50.738;7.122;2022-09-21T11:03:47;102123.94;;;19.70;49.03
19860;BME280;2395;50.738;7.122;2022-09-21T11:06:22;102128.44;;;20.64;47.80
19860;BME280;2395;50.738;7.122;2022-09-21T11:08:55;102126.13;;;21.36;47.33
19860;BME280;2395;50.738;7.122;2022-09-21T11:11:38;102122.28;;;21.86;45.15
19860;BME280;2395;50.738;7.122;2022-09-21T11:14:23;102118.59;;;22.45;43.48
19860;BME280;2395;50.738;7.122;2022-09-21T11:16:57;102112.56;;;22.02;44.01
19860;BME280;2395;50.738;7.122;2022-09-21T11:19:35;102113.81;;;22.38;43.18
19860;BME280;2395;50.738;7.122;2022-09-21T11:22:11;102108.97;;;21.61;43.48
19860;BME280;2395;50.738;7.122;2022-09-21T11:24:48;102106.44;;;19.88;46.50
19860;BME280;2395;50.738;7.122;2022-09-21T11:27:23;102107.31;;;20.06;46.94
19860;BME280;2395;50.738;7.122;2022-09-21T11:30:01;102106.88;;;20.76;46.16
19860;BME280;2395;50.738;7.122;2022-09-21T11:33:00;102097.38;;;21.36;43.66
19860;BME280;2395;50.738;7.122;2022-09-21T11:35:41;102095.09;;;21.00;43.57
19860;BME280;2395;50.738;7.122;2022-09-21T11:38:27;102091.75;;;20.04;44.92
19860;BME280;2395;50.738;7.122;2022-09-21T11:41:15;102088.72;;;21.64;41.87
19860;BME280;2395;50.738;7.122;2022-09-21T11:44:16;102084.06;;;21.83;42.56
19860;BME280;2395;50.738;7.122;2022-09-21T11:46:52;102078.25;;;23.41;38.44
19860;BME280;2395;50.738;7.122;2022-09-21T11:49:40;102077.16;;;23.82;39.55
19860;BME280;2395;50.738;7.122;2022-09-21T11:52:32;102082.97;;;22.29;39.75
19860;BME280;2395;50.738;7.122;2022-09-21T11:55:30;102083.47;;;23.02;38.32
19860;BME280;2395;50.738;7.122;2022-09-21T11:58:11;102072.31;;;23.25;37.54
19860;BME280;2395;50.738;7.122;2022-09-21T12:00:52;102070.16;;;22.39;38.88
19860;BME280;2395;50.738;7.122;2022-09-21T12:03:42;102075.69;;;20.60;44.03
19860;BME280;2395;50.738;7.122;2022-09-21T12:06:27;102069.97;;;21.72;42.34
19860;BME280;2395;50.738;7.122;2022-09-21T12:09:22;102068.59;;;23.29;37.87
19860;BME280;2395;50.738;7.122;2022-09-21T12:12:03;102053.94;;;23.51;37.29
19860;BME280;2395;50.738;7.122;2022-09-21T12:14:39;102066.59;;;22.53;39.20
19860;BME280;2395;50.738;7.122;2022-09-21T12:17:16;102066.69;;;23.19;37.10
19860;BME280;2395;50.738;7.122;2022-09-21T12:19:55;102049.53;;;23.64;36.17
19860;BME280;2395;50.738;7.122;2022-09-21T12:22:32;102049.94;;;23.46;34.63
19860;BME280;2395;50.738;7.122;2022-09-21T12:25:09;102043.44;;;23.39;34.75
19860;BME280;2395;50.738;7.122;2022-09-21T12:27:42;102041.38;;;24.54;34.00
19860;BME280;2395;50.738;7.122;2022-09-21T12:30:14;102037.97;;;24.88;33.42
19860;BME280;2395;50.738;7.122;2022-09-21T12:32:53;102039.44;;;25.83;31.28
19860;BME280;2395;50.738;7.122;2022-09-21T12:35:29;102041.81;;;26.51;30.67
19860;BME280;2395;50.738;7.122;2022-09-21T12:38:09;102031.31;;;25.86;30.50
19860;BME280;2395;50.738;7.122;2022-09-21T12:40:41;102024.34;;;27.33;29.22
19860;BME280;2395;50.738;7.122;2022-09-21T12:43:26;102024.78;;;27.18;29.64
19860;BME280;2395;50.738;7.122;2022-09-21T12:45:59;102021.28;;;27.28;28.85
19860;BME280;2395;50.738;7.122;2022-09-21T12:48:32;102027.31;;;26.35;31.27
19860;BME280;2395;50.738;7.122;2022-09-21T12:51:09;102014.31;;;27.48;29.71
19860;BME280;2395;50.738;7.122;2022-09-21T12:53:43;102017.38;;;25.51;32.03
19860;BME280;2395;50.738;7.122;2022-09-21T12:56:24;102014.53;;;23.78;34.93
19860;BME280;2395;50.738;7.122;2022-09-21T12:59:17;102014.13;;;25.36;31.64
19860;BME280;2395;50.738;7.122;2022-09-21T13:01:56;102004.25;;;27.01;30.36
19860;BME280;2395;50.738;7.122;2022-09-21T13:04:43;102001.56;;;26.60;29.53
19860;BME280;2395;50.738;7.122;2022-09-21T13:08:06;102002.69;;;27.30;29.38
19860;BME280;2395;50.738;7.122;2022-09-21T13:10:47;102001.44;;;28.14;28.34
19860;BME280;2395;50.738;7.122;2022-09-21T13:13:30;102004.03;;;27.65;27.55
19860;BME280;2395;50.738;7.122;2022-09-21T13:15:59;102001.53;;;27.23;28.64
19860;BME280;2395;50.738;7.122;2022-09-21T13:18:32;101996.84;;;28.16;27.40
19860;BME280;2395;50.738;7.122;2022-09-21T13:21:12;101998.00;;;25.41;30.61
19860;BME280;2395;50.738;7.122;2022-09-21T13:23:40;101999.09;;;23.61;33.97
19860;BME280;2395;50.738;7.122;2022-09-21T13:26:11;101991.44;;;25.57;29.39
19860;BME280;2395;50.738;7.122;2022-09-21T13:29:26;101985.06;;;27.10;26.53
19860;BME280;2395;50.738;7.122;2022-09-21T13:32:00;101988.38;;;28.12;25.65
19860;BME280;2395;50.738;7.122;2022-09-21T13:34:32;101986.94;;;28.08;25.66